sensor_id;sensor_type;location;lat;lon;timestamp;temperature;humidity
41220;DHT22;26951;47.338;9.196;2024-01-27T00:01:37;5.70;73.00
41220;DHT22;26951;47.338;9.196;2024-01-27T00:04:21;5.70;73.10
41220;DHT22;26951;47.338;9.196;2024-01-27T00:07:05;5.70;73.30
41220;DHT22;26951;47.338;9.196;2024-01-27T00:09:49;5.70;73.50
41220;DHT22;26951;47.338;9.196;2024-01-27T00:12:33;5.70;73.40
41220;DHT22;26951;47.338;9.196;2024-01-27T00:15:17;5.70;73.50
41220;DHT22;26951;47.338;9.196;2024-01-27T00:18:01;5.70;73.70
41220;DHT22;26951;47.338;9.196;2024-01-27T00:20:46;5.70;74.00
41220;DHT22;26951;47.338;9.196;2024-01-27T00:23:30;5.70;74.50
41220;DHT22;26951;47.338;9.196;2024-01-27T00:26:14;5.70;74.70
41220;DHT22;26951;47.338;9.196;2024-01-27T00:28:58;5.60;73.50
41220;DHT22;26951;47.338;9.196;2024-01-27T00:31:42;5.60;73.70
41220;DHT22;26951;47.338;9.196;2024-01-27T00:34:27;5.60;74.10
41220;DHT22;26951;47.338;9.196;2024-01-27T00:37:11;5.60;73.30
41220;DHT22;26951;47.338;9.196;2024-01-27T00:39:55;5.60;73.80
41220;DHT22;26951;47.338;9.196;2024-01-27T00:42:40;5.60;74.00
41220;DHT22;26951;47.338;9.196;2024-01-27T00:45:25;5.50;74.90
41220;DHT22;26951;47.338;9.196;2024-01-27T00:48:11;5.50;74.40
41220;DHT22;26951;47.338;9.196;2024-01-27T00:50:55;5.50;74.70
41220;DHT22;26951;47.338;9.196;2024-01-27T00:53:40;5.50;74.70
41220;DHT22;26951;47.338;9.196;2024-01-27T00:56:25;5.50;75.00
41220;DHT22;26951;47.338;9.196;2024-01-27T00:59:09;5.50;75.00
41220;DHT22;26951;47.338;9.196;2024-01-27T01:01:53;5.50;75.00
41220;DHT22;26951;47.338;9.196;2024-01-27T01:04:37;5.40;75.30
41220;DHT22;26951;47.338;9.196;2024-01-27T01:07:21;5.40;75.40
41220;DHT22;26951;47.338;9.196;2024-01-27T01:10:05;5.40;75.50
41220;DHT22;26951;47.338;9.196;2024-01-27T01:12:50;5.40;75.50
41220;DHT22;26951;47.338;9.196;2024-01-27T01:15:34;5.40;75.70
41220;DHT22;26951;47.338;9.196;2024-01-27T01:18:19;5.30;75.60
41220;DHT22;26951;47.338;9.196;2024-01-27T01:21:03;5.30;75.60
41220;DHT22;26951;47.338;9.196;2024-01-27T01:23:47;5.30;75.90
41220;DHT22;26951;47.338;9.196;2024-01-27T01:26:32;5.30;75.80
41220;DHT22;26951;47.338;9.196;2024-01-27T01:29:16;5.30;75.80
41220;DHT22;26951;47.338;9.196;2024-01-27T01:32:00;5.30;75.70
41220;DHT22;26951;47.338;9.196;2024-01-27T01:34:48;5.30;75.90
41220;DHT22;26951;47.338;9.196;2024-01-27T01:37:32;5.30;76.10
41220;DHT22;26951;47.338;9.196;2024-01-27T01:40:16;5.30;76.10
41220;DHT22;26951;47.338;9.196;2024-01-27T01:43:00;5.30;76.10
41220;DHT22;26951;47.338;9.196;2024-01-27T01:45:44;5.30;76.40
41220;DHT22;26951;47.338;9.196;2024-01-27T01:48:29;5.30;77.00
41220;DHT22;26951;47.338;9.196;2024-01-27T01:51:13;5.30;76.40
41220;DHT22;26951;47.338;9.196;2024-01-27T01:53:59;5.30;76.60
41220;DHT22;26951;47.338;9.196;2024-01-27T01:56:43;5.30;76.70
41220;DHT22;26951;47.338;9.196;2024-01-27T01:59:27;5.30;76.70
41220;DHT22;26951;47.338;9.196;2024-01-27T02:04:58;5.20;76.80
41220;DHT22;26951;47.338;9.196;2024-01-27T02:07:43;5.10;76.90
41220;DHT22;26951;47.338;9.196;2024-01-27T02:10:27;5.10;77.50
41220;DHT22;26951;47.338;9.196;2024-01-27T02:13:22;5.10;77.70
41220;DHT22;26951;47.338;9.196;2024-01-27T02:16:06;5.10;77.50
41220;DHT22;26951;47.338;9.196;2024-01-27T02:18:50;5.10;77.50
41220;DHT22;26951;47.338;9.196;2024-01-27T02:21:35;5.10;76.80
41220;DHT22;26951;47.338;9.196;2024-01-27T02:24:18;5.00;76.10
41220;DHT22;26951;47.338;9.196;2024-01-27T02:27:03;5.00;75.30
41220;DHT22;26951;47.338;9.196;2024-01-27T02:29:47;5.10;75.00
41220;DHT22;26951;47.338;9.196;2024-01-27T02:32:31;5.00;74.50
41220;DHT22;26951;47.338;9.196;2024-01-27T02:35:15;5.00;74.20
41220;DHT22;26951;47.338;9.196;2024-01-27T02:38:00;5.00;73.90
41220;DHT22;26951;47.338;9.196;2024-01-27T02:40:44;5.00;74.20
41220;DHT22;26951;47.338;9.196;2024-01-27T02:43:28;5.00;73.70
41220;DHT22;26951;47.338;9.196;2024-01-27T02:46:13;4.90;74.20
41220;DHT22;26951;47.338;9.196;2024-01-27T02:48:57;4.90;74.40
41220;DHT22;26951;47.338;9.196;2024-01-27T02:51:41;5.00;74.90
41220;DHT22;26951;47.338;9.196;2024-01-27T02:54:25;4.90;75.10
41220;DHT22;26951;47.338;9.196;2024-01-27T02:57:09;4.90;75.50
41220;DHT22;26951;47.338;9.196;2024-01-27T02:59:53;4.90;75.70
41220;DHT22;26951;47.338;9.196;2024-01-27T03:02:37;4.90;75.90
41220;DHT22;26951;47.338;9.196;2024-01-27T03:05:22;4.90;76.10
41220;DHT22;26951;47.338;9.196;2024-01-27T03:08:06;4.90;76.40
41220;DHT22;26951;47.338;9.196;2024-01-27T03:10:50;4.90;76.60
41220;DHT22;26951;47.338;9.196;2024-01-27T03:13:34;4.90;76.50
41220;DHT22;26951;47.338;9.196;2024-01-27T03:16:18;4.90;76.40
41220;DHT22;26951;47.338;9.196;2024-01-27T03:19:04;4.90;76.40
41220;DHT22;26951;47.338;9.196;2024-01-27T03:21:48;4.90;76.40
41220;DHT22;26951;47.338;9.196;2024-01-27T03:24:31;4.90;76.60
41220;DHT22;26951;47.338;9.196;2024-01-27T03:27:16;4.90;76.80
41220;DHT22;26951;47.338;9.196;2024-01-27T03:30:01;4.90;76.40
41220;DHT22;26951;47.338;9.196;2024-01-27T03:32:48;4.90;76.60
41220;DHT22;26951;47.338;9.196;2024-01-27T03:35:32;4.90;76.40
41220;DHT22;26951;47.338;9.196;2024-01-27T03:38:16;4.90;76.50
41220;DHT22;26951;47.338;9.196;2024-01-27T03:41:00;4.90;76.70
41220;DHT22;26951;47.338;9.196;2024-01-27T03:43:44;4.90;76.60
41220;DHT22;26951;47.338;9.196;2024-01-27T03:46:29;4.90;76.80
41220;DHT22;26951;47.338;9.196;2024-01-27T03:49:12;4.90;76.80
41220;DHT22;26951;47.338;9.196;2024-01-27T03:51:56;4.80;76.70
41220;DHT22;26951;47.338;9.196;2024-01-27T03:54:41;4.80;77.50
41220;DHT22;26951;47.338;9.196;2024-01-27T03:57:25;4.80;76.70
41220;DHT22;26951;47.338;9.196;2024-01-27T04:00:09;4.80;77.40
41220;DHT22;26951;47.338;9.196;2024-01-27T04:02:55;4.80;76.60
41220;DHT22;26951;47.338;9.196;2024-01-27T04:05:40;4.80;76.50
41220;DHT22;26951;47.338;9.196;2024-01-27T04:08:24;4.80;75.80
41220;DHT22;26951;47.338;9.196;2024-01-27T04:11:08;4.80;75.80
41220;DHT22;26951;47.338;9.196;2024-01-27T04:13:52;4.80;76.20
41220;DHT22;26951;47.338;9.196;2024-01-27T04:16:36;4.70;76.20
41220;DHT22;26951;47.338;9.196;2024-01-27T04:19:20;4.70;76.20
41220;DHT22;26951;47.338;9.196;2024-01-27T04:22:04;4.70;76.30
41220;DHT22;26951;47.338;9.196;2024-01-27T04:24:48;4.70;76.20
41220;DHT22;26951;47.338;9.196;2024-01-27T04:27:37;4.70;75.80
41220;DHT22;26951;47.338;9.196;2024-01-27T04:30:22;4.70;75.60
41220;DHT22;26951;47.338;9.196;2024-01-27T04:33:06;4.70;75.60
41220;DHT22;26951;47.338;9.196;2024-01-27T04:35:51;4.70;75.50
41220;DHT22;26951;47.338;9.196;2024-01-27T04:38:36;4.60;75.40
41220;DHT22;26951;47.338;9.196;2024-01-27T04:41:19;4.60;75.40
41220;DHT22;26951;47.338;9.196;2024-01-27T04:44:04;4.60;75.00
41220;DHT22;26951;47.338;9.196;2024-01-27T04:46:48;4.60;74.30
41220;DHT22;26951;47.338;9.196;2024-01-27T04:49:32;4.60;74.20
41220;DHT22;26951;47.338;9.196;2024-01-27T04:52:16;4.60;74.00
41220;DHT22;26951;47.338;9.196;2024-01-27T04:55:01;4.50;73.30
41220;DHT22;26951;47.338;9.196;2024-01-27T04:57:45;4.40;72.90
41220;DHT22;26951;47.338;9.196;2024-01-27T05:00:29;4.40;73.30
41220;DHT22;26951;47.338;9.196;2024-01-27T05:03:13;4.30;71.70
41220;DHT22;26951;47.338;9.196;2024-01-27T05:05:57;4.30;70.50
41220;DHT22;26951;47.338;9.196;2024-01-27T05:08:41;4.30;70.50
41220;DHT22;26951;47.338;9.196;2024-01-27T05:11:29;4.20;70.70
41220;DHT22;26951;47.338;9.196;2024-01-27T05:14:13;4.20;70.60
41220;DHT22;26951;47.338;9.196;2024-01-27T05:16:58;4.10;70.40
41220;DHT22;26951;47.338;9.196;2024-01-27T05:19:42;4.10;69.80
41220;DHT22;26951;47.338;9.196;2024-01-27T05:22:26;4.00;69.40
41220;DHT22;26951;47.338;9.196;2024-01-27T05:25:11;3.90;69.50
41220;DHT22;26951;47.338;9.196;2024-01-27T05:27:55;3.80;69.20
41220;DHT22;26951;47.338;9.196;2024-01-27T05:30:38;3.80;69.10
41220;DHT22;26951;47.338;9.196;2024-01-27T05:33:23;3.70;68.30
41220;DHT22;26951;47.338;9.196;2024-01-27T05:36:07;3.50;68.80
41220;DHT22;26951;47.338;9.196;2024-01-27T05:38:51;3.40;68.70
41220;DHT22;26951;47.338;9.196;2024-01-27T05:41:35;3.30;70.20
41220;DHT22;26951;47.338;9.196;2024-01-27T05:44:19;3.20;71.00
41220;DHT22;26951;47.338;9.196;2024-01-27T05:47:04;3.10;71.50
41220;DHT22;26951;47.338;9.196;2024-01-27T05:49:48;3.00;71.40
41220;DHT22;26951;47.338;9.196;2024-01-27T05:52:32;2.90;71.40
41220;DHT22;26951;47.338;9.196;2024-01-27T05:55:17;2.90;70.70
41220;DHT22;26951;47.338;9.196;2024-01-27T05:58:00;2.80;70.80
41220;DHT22;26951;47.338;9.196;2024-01-27T06:00:45;2.80;71.50
41220;DHT22;26951;47.338;9.196;2024-01-27T06:03:29;2.70;72.20
41220;DHT22;26951;47.338;9.196;2024-01-27T06:06:15;2.60;71.20
41220;DHT22;26951;47.338;9.196;2024-01-27T06:08:59;2.60;70.60
41220;DHT22;26951;47.338;9.196;2024-01-27T06:11:43;2.50;70.40
41220;DHT22;26951;47.338;9.196;2024-01-27T06:14:27;2.50;70.80
41220;DHT22;26951;47.338;9.196;2024-01-27T06:17:13;2.50;70.80
41220;DHT22;26951;47.338;9.196;2024-01-27T06:19:59;2.40;70.20
41220;DHT22;26951;47.338;9.196;2024-01-27T06:22:43;2.40;70.60
41220;DHT22;26951;47.338;9.196;2024-01-27T06:25:27;2.20;71.20
41220;DHT22;26951;47.338;9.196;2024-01-27T06:28:11;2.20;71.50
41220;DHT22;26951;47.338;9.196;2024-01-27T06:30:55;2.10;71.70
41220;DHT22;26951;47.338;9.196;2024-01-27T06:33:40;2.20;71.30
41220;DHT22;26951;47.338;9.196;2024-01-27T06:36:24;2.10;70.70
41220;DHT22;26951;47.338;9.196;2024-01-27T06:39:08;2.00;71.20
41220;DHT22;26951;47.338;9.196;2024-01-27T06:41:53;2.00;70.90
41220;DHT22;26951;47.338;9.196;2024-01-27T06:44:38;2.00;71.10
41220;DHT22;26951;47.338;9.196;2024-01-27T06:47:21;1.90;71.00
41220;DHT22;26951;47.338;9.196;2024-01-27T06:50:06;1.90;71.10
41220;DHT22;26951;47.338;9.196;2024-01-27T06:52:50;1.90;70.80
41220;DHT22;26951;47.338;9.196;2024-01-27T06:55:34;1.80;71.10
41220;DHT22;26951;47.338;9.196;2024-01-27T06:58:18;1.80;71.50
41220;DHT22;26951;47.338;9.196;2024-01-27T07:01:03;1.70;71.50
41220;DHT22;26951;47.338;9.196;2024-01-27T07:03:47;1.60;72.10
41220;DHT22;26951;47.338;9.196;2024-01-27T07:06:32;1.60;72.20
41220;DHT22;26951;47.338;9.196;2024-01-27T07:09:16;1.60;72.40
41220;DHT22;26951;47.338;9.196;2024-01-27T07:12:00;1.60;72.10
41220;DHT22;26951;47.338;9.196;2024-01-27T07:14:45;1.60;72.80
41220;DHT22;26951;47.338;9.196;2024-01-27T07:17:29;1.50;73.80
41220;DHT22;26951;47.338;9.196;2024-01-27T07:20:13;1.40;74.50
41220;DHT22;26951;47.338;9.196;2024-01-27T07:22:58;1.30;75.90
41220;DHT22;26951;47.338;9.196;2024-01-27T07:25:42;1.30;77.00
41220;DHT22;26951;47.338;9.196;2024-01-27T07:28:26;1.30;77.10
41220;DHT22;26951;47.338;9.196;2024-01-27T07:31:10;1.30;76.60
41220;DHT22;26951;47.338;9.196;2024-01-27T07:33:55;1.40;76.30
41220;DHT22;26951;47.338;9.196;2024-01-27T07:36:39;1.40;75.80
41220;DHT22;26951;47.338;9.196;2024-01-27T07:39:23;1.30;76.10
41220;DHT22;26951;47.338;9.196;2024-01-27T07:42:08;1.30;77.60
41220;DHT22;26951;47.338;9.196;2024-01-27T07:44:52;1.20;77.80
41220;DHT22;26951;47.338;9.196;2024-01-27T07:47:36;1.30;78.70
41220;DHT22;26951;47.338;9.196;2024-01-27T07:50:20;1.30;78.10
41220;DHT22;26951;47.338;9.196;2024-01-27T07:53:04;1.30;77.60
41220;DHT22;26951;47.338;9.196;2024-01-27T07:55:49;1.40;77.80
41220;DHT22;26951;47.338;9.196;2024-01-27T07:58:35;1.40;77.50
41220;DHT22;26951;47.338;9.196;2024-01-27T08:01:19;1.50;77.50
41220;DHT22;26951;47.338;9.196;2024-01-27T08:04:03;1.50;76.50
41220;DHT22;26951;47.338;9.196;2024-01-27T08:06:49;1.50;75.00
41220;DHT22;26951;47.338;9.196;2024-01-27T08:09:33;1.50;75.10
41220;DHT22;26951;47.338;9.196;2024-01-27T08:12:18;1.50;76.30
41220;DHT22;26951;47.338;9.196;2024-01-27T08:15:02;1.50;76.90
41220;DHT22;26951;47.338;9.196;2024-01-27T08:17:47;1.50;76.00
41220;DHT22;26951;47.338;9.196;2024-01-27T08:20:31;1.50;75.80
41220;DHT22;26951;47.338;9.196;2024-01-27T08:23:15;1.60;76.40
41220;DHT22;26951;47.338;9.196;2024-01-27T08:25:59;1.60;76.80
41220;DHT22;26951;47.338;9.196;2024-01-27T08:28:43;1.60;77.20
41220;DHT22;26951;47.338;9.196;2024-01-27T08:31:27;1.60;77.10
41220;DHT22;26951;47.338;9.196;2024-01-27T08:34:12;1.70;76.40
41220;DHT22;26951;47.338;9.196;2024-01-27T08:37:01;1.70;75.70
41220;DHT22;26951;47.338;9.196;2024-01-27T08:39:46;1.70;75.90
41220;DHT22;26951;47.338;9.196;2024-01-27T08:42:30;1.70;76.90
41220;DHT22;26951;47.338;9.196;2024-01-27T08:45:14;1.80;77.30
41220;DHT22;26951;47.338;9.196;2024-01-27T08:47:59;1.90;77.60
41220;DHT22;26951;47.338;9.196;2024-01-27T08:50:43;1.90;78.00
41220;DHT22;26951;47.338;9.196;2024-01-27T08:53:27;2.00;78.40
41220;DHT22;26951;47.338;9.196;2024-01-27T08:56:11;2.00;78.90
41220;DHT22;26951;47.338;9.196;2024-01-27T08:58:57;2.20;80.50
41220;DHT22;26951;47.338;9.196;2024-01-27T09:01:42;2.30;82.50
41220;DHT22;26951;47.338;9.196;2024-01-27T09:04:26;2.60;86.10
41220;DHT22;26951;47.338;9.196;2024-01-27T09:07:11;2.90;90.00
41220;DHT22;26951;47.338;9.196;2024-01-27T09:09:56;3.40;91.80
41220;DHT22;26951;47.338;9.196;2024-01-27T09:12:40;3.80;92.90
41220;DHT22;26951;47.338;9.196;2024-01-27T09:15:24;4.30;93.80
41220;DHT22;26951;47.338;9.196;2024-01-27T09:18:08;4.80;94.30
41220;DHT22;26951;47.338;9.196;2024-01-27T09:20:52;5.20;93.90
41220;DHT22;26951;47.338;9.196;2024-01-27T09:23:36;5.50;92.90
41220;DHT22;26951;47.338;9.196;2024-01-27T09:26:20;6.00;92.90
41220;DHT22;26951;47.338;9.196;2024-01-27T09:29:06;6.40;92.20
41220;DHT22;26951;47.338;9.196;2024-01-27T09:31:51;6.80;87.60
41220;DHT22;26951;47.338;9.196;2024-01-27T09:34:35;7.10;83.60
41220;DHT22;26951;47.338;9.196;2024-01-27T09:37:19;7.50;80.50
41220;DHT22;26951;47.338;9.196;2024-01-27T09:40:04;7.90;80.70
41220;DHT22;26951;47.338;9.196;2024-01-27T09:42:51;8.20;79.00
41220;DHT22;26951;47.338;9.196;2024-01-27T09:45:37;8.60;74.50
41220;DHT22;26951;47.338;9.196;2024-01-27T09:48:21;8.90;74.50
41220;DHT22;26951;47.338;9.196;2024-01-27T09:51:07;9.20;72.30
41220;DHT22;26951;47.338;9.196;2024-01-27T09:53:52;9.60;72.40
41220;DHT22;26951;47.338;9.196;2024-01-27T09:56:36;9.80;66.10
41220;DHT22;26951;47.338;9.196;2024-01-27T09:59:20;10.10;64.40
41220;DHT22;26951;47.338;9.196;2024-01-27T10:02:06;10.30;61.80
41220;DHT22;26951;47.338;9.196;2024-01-27T10:04:53;10.60;63.60
41220;DHT22;26951;47.338;9.196;2024-01-27T10:07:39;10.90;62.20
41220;DHT22;26951;47.338;9.196;2024-01-27T10:10:23;11.10;59.40
41220;DHT22;26951;47.338;9.196;2024-01-27T10:13:10;11.30;58.80
41220;DHT22;26951;47.338;9.196;2024-01-27T10:16:04;11.40;58.80
41220;DHT22;26951;47.338;9.196;2024-01-27T10:19:02;11.60;57.30
41220;DHT22;26951;47.338;9.196;2024-01-27T10:21:47;11.80;56.70
41220;DHT22;26951;47.338;9.196;2024-01-27T10:24:31;11.90;55.70
41220;DHT22;26951;47.338;9.196;2024-01-27T10:27:16;11.90;53.40
41220;DHT22;26951;47.338;9.196;2024-01-27T10:30:02;11.80;54.10
41220;DHT22;26951;47.338;9.196;2024-01-27T10:32:56;11.80;52.70
41220;DHT22;26951;47.338;9.196;2024-01-27T10:35:43;11.80;53.50
41220;DHT22;26951;47.338;9.196;2024-01-27T10:38:38;11.80;53.70
41220;DHT22;26951;47.338;9.196;2024-01-27T10:41:24;11.80;54.20
41220;DHT22;26951;47.338;9.196;2024-01-27T10:44:15;11.90;53.60
41220;DHT22;26951;47.338;9.196;2024-01-27T10:47:02;11.90;52.90
41220;DHT22;26951;47.338;9.196;2024-01-27T10:49:47;12.00;55.00
41220;DHT22;26951;47.338;9.196;2024-01-27T10:52:32;12.10;53.10
41220;DHT22;26951;47.338;9.196;2024-01-27T10:55:18;11.90;45.40
41220;DHT22;26951;47.338;9.196;2024-01-27T10:58:03;11.70;48.90
41220;DHT22;26951;47.338;9.196;2024-01-27T11:00:48;11.60;51.10
41220;DHT22;26951;47.338;9.196;2024-01-27T11:03:34;11.60;52.20
41220;DHT22;26951;47.338;9.196;2024-01-27T11:06:19;11.70;50.80
41220;DHT22;26951;47.338;9.196;2024-01-27T11:09:08;11.70;50.60
41220;DHT22;26951;47.338;9.196;2024-01-27T11:11:53;11.70;51.20
41220;DHT22;26951;47.338;9.196;2024-01-27T11:14:37;11.80;51.60
41220;DHT22;26951;47.338;9.196;2024-01-27T11:17:21;11.90;51.80
41220;DHT22;26951;47.338;9.196;2024-01-27T11:20:08;12.10;51.30
41220;DHT22;26951;47.338;9.196;2024-01-27T11:22:52;12.30;52.70
41220;DHT22;26951;47.338;9.196;2024-01-27T11:25:38;12.50;51.10
41220;DHT22;26951;47.338;9.196;2024-01-27T11:28:25;12.70;47.50
41220;DHT22;26951;47.338;9.196;2024-01-27T11:31:10;12.70;47.10
41220;DHT22;26951;47.338;9.196;2024-01-27T11:33:55;12.80;48.40
41220;DHT22;26951;47.338;9.196;2024-01-27T11:36:39;12.90;49.70
41220;DHT22;26951;47.338;9.196;2024-01-27T11:39:29;13.10;49.10
41220;DHT22;26951;47.338;9.196;2024-01-27T11:42:14;13.20;45.30
41220;DHT22;26951;47.338;9.196;2024-01-27T11:44:58;13.10;47.70
41220;DHT22;26951;47.338;9.196;2024-01-27T11:47:43;13.10;47.40
41220;DHT22;26951;47.338;9.196;2024-01-27T11:50:27;13.00;45.90
41220;DHT22;26951;47.338;9.196;2024-01-27T11:53:12;13.00;46.70
41220;DHT22;26951;47.338;9.196;2024-01-27T11:55:56;13.00;45.70
41220;DHT22;26951;47.338;9.196;2024-01-27T11:58:48;12.90;46.20
41220;DHT22;26951;47.338;9.196;2024-01-27T12:01:33;12.90;46.70
41220;DHT22;26951;47.338;9.196;2024-01-27T12:04:18;12.90;46.60
41220;DHT22;26951;47.338;9.196;2024-01-27T12:07:02;12.90;47.90
41220;DHT22;26951;47.338;9.196;2024-01-27T12:09:50;13.00;47.80
41220;DHT22;26951;47.338;9.196;2024-01-27T12:12:35;13.20;47.90
41220;DHT22;26951;47.338;9.196;2024-01-27T12:15:19;13.40;47.20
41220;DHT22;26951;47.338;9.196;2024-01-27T12:18:04;13.50;46.60
41220;DHT22;26951;47.338;9.196;2024-01-27T12:20:55;13.70;46.20
41220;DHT22;26951;47.338;9.196;2024-01-27T12:23:54;13.80;45.80
41220;DHT22;26951;47.338;9.196;2024-01-27T12:26:38;13.80;45.10
41220;DHT22;26951;47.338;9.196;2024-01-27T12:29:25;13.80;44.60
41220;DHT22;26951;47.338;9.196;2024-01-27T12:32:10;13.90;45.60
41220;DHT22;26951;47.338;9.196;2024-01-27T12:34:54;13.90;44.40
41220;DHT22;26951;47.338;9.196;2024-01-27T12:37:39;14.00;44.20
41220;DHT22;26951;47.338;9.196;2024-01-27T12:40:24;14.00;44.60
41220;DHT22;26951;47.338;9.196;2024-01-27T12:43:08;14.00;43.20
41220;DHT22;26951;47.338;9.196;2024-01-27T12:45:53;13.90;43.30
41220;DHT22;26951;47.338;9.196;2024-01-27T12:48:37;13.90;45.10
41220;DHT22;26951;47.338;9.196;2024-01-27T12:51:22;13.90;43.20
41220;DHT22;26951;47.338;9.196;2024-01-27T12:54:07;14.00;44.60
41220;DHT22;26951;47.338;9.196;2024-01-27T12:56:52;14.00;43.50
41220;DHT22;26951;47.338;9.196;2024-01-27T12:59:36;14.00;43.10
41220;DHT22;26951;47.338;9.196;2024-01-27T13:02:20;14.00;44.20
41220;DHT22;26951;47.338;9.196;2024-01-27T13:05:05;14.00;44.60
41220;DHT22;26951;47.338;9.196;2024-01-27T13:07:49;14.00;43.50
41220;DHT22;26951;47.338;9.196;2024-01-27T13:10:33;14.10;43.00
41220;DHT22;26951;47.338;9.196;2024-01-27T13:13:17;14.00;42.60
41220;DHT22;26951;47.338;9.196;2024-01-27T13:16:01;14.00;43.50
41220;DHT22;26951;47.338;9.196;2024-01-27T13:18:46;14.00;43.80
41220;DHT22;26951;47.338;9.196;2024-01-27T13:21:30;14.00;43.00
41220;DHT22;26951;47.338;9.196;2024-01-27T13:24:14;14.00;43.50
41220;DHT22;26951;47.338;9.196;2024-01-27T13:26:58;13.90;43.20
41220;DHT22;26951;47.338;9.196;2024-01-27T13:29:43;13.80;41.10
41220;DHT22;26951;47.338;9.196;2024-01-27T13:32:29;13.60;40.70
41220;DHT22;26951;47.338;9.196;2024-01-27T13:35:13;13.50;43.40
41220;DHT22;26951;47.338;9.196;2024-01-27T13:37:58;13.40;43.90
41220;DHT22;26951;47.338;9.196;2024-01-27T13:40:42;13.30;42.90
41220;DHT22;26951;47.338;9.196;2024-01-27T13:43:26;13.30;43.30
41220;DHT22;26951;47.338;9.196;2024-01-27T13:46:10;13.20;43.10
41220;DHT22;26951;47.338;9.196;2024-01-27T13:48:54;13.10;43.50
41220;DHT22;26951;47.338;9.196;2024-01-27T13:51:39;12.90;43.60
41220;DHT22;26951;47.338;9.196;2024-01-27T13:54:23;12.70;44.20
41220;DHT22;26951;47.338;9.196;2024-01-27T13:57:09;12.50;44.60
41220;DHT22;26951;47.338;9.196;2024-01-27T13:59:54;12.40;44.70
41220;DHT22;26951;47.338;9.196;2024-01-27T14:02:38;12.10;45.60
41220;DHT22;26951;47.338;9.196;2024-01-27T14:05:22;11.90;46.10
41220;DHT22;26951;47.338;9.196;2024-01-27T14:08:06;11.80;47.10
41220;DHT22;26951;47.338;9.196;2024-01-27T14:10:52;11.70;47.30
41220;DHT22;26951;47.338;9.196;2024-01-27T14:13:37;11.50;47.40
41220;DHT22;26951;47.338;9.196;2024-01-27T14:16:21;11.40;47.20
41220;DHT22;26951;47.338;9.196;2024-01-27T14:19:06;11.30;47.80
41220;DHT22;26951;47.338;9.196;2024-01-27T14:21:51;11.20;48.60
41220;DHT22;26951;47.338;9.196;2024-01-27T14:24:35;11.00;47.70
41220;DHT22;26951;47.338;9.196;2024-01-27T14:27:20;10.90;48.30
41220;DHT22;26951;47.338;9.196;2024-01-27T14:30:10;10.80;49.10
41220;DHT22;26951;47.338;9.196;2024-01-27T14:32:54;10.80;48.60
41220;DHT22;26951;47.338;9.196;2024-01-27T14:35:39;10.70;49.10
41220;DHT22;26951;47.338;9.196;2024-01-27T14:38:23;10.70;48.40
41220;DHT22;26951;47.338;9.196;2024-01-27T14:41:08;10.70;49.20
41220;DHT22;26951;47.338;9.196;2024-01-27T14:43:52;10.70;50.10
41220;DHT22;26951;47.338;9.196;2024-01-27T14:46:36;10.70;49.90
41220;DHT22;26951;47.338;9.196;2024-01-27T14:49:23;10.70;49.50
41220;DHT22;26951;47.338;9.196;2024-01-27T14:52:07;10.80;49.20
41220;DHT22;26951;47.338;9.196;2024-01-27T14:54:52;10.80;49.40
41220;DHT22;26951;47.338;9.196;2024-01-27T14:57:36;10.90;49.20
41220;DHT22;26951;47.338;9.196;2024-01-27T15:00:20;10.90;48.90
41220;DHT22;26951;47.338;9.196;2024-01-27T15:03:07;11.00;48.60
41220;DHT22;26951;47.338;9.196;2024-01-27T15:05:51;11.00;47.70
41220;DHT22;26951;47.338;9.196;2024-01-27T15:08:36;11.00;47.70
41220;DHT22;26951;47.338;9.196;2024-01-27T15:11:21;10.80;47.50
41220;DHT22;26951;47.338;9.196;2024-01-27T15:14:05;10.70;47.60
41220;DHT22;26951;47.338;9.196;2024-01-27T15:16:49;10.70;47.80
41220;DHT22;26951;47.338;9.196;2024-01-27T15:19:34;10.60;48.40
41220;DHT22;26951;47.338;9.196;2024-01-27T15:22:18;10.60;47.40
41220;DHT22;26951;47.338;9.196;2024-01-27T15:25:02;10.60;47.30
41220;DHT22;26951;47.338;9.196;2024-01-27T15:27:47;10.50;47.30
41220;DHT22;26951;47.338;9.196;2024-01-27T15:30:31;10.40;47.80
41220;DHT22;26951;47.338;9.196;2024-01-27T15:33:16;10.30;47.50
41220;DHT22;26951;47.338;9.196;2024-01-27T15:36:00;10.20;47.50
41220;DHT22;26951;47.338;9.196;2024-01-27T15:38:44;10.00;46.80
41220;DHT22;26951;47.338;9.196;2024-01-27T15:41:28;9.80;47.60
41220;DHT22;26951;47.338;9.196;2024-01-27T15:44:13;9.60;47.40
41220;DHT22;26951;47.338;9.196;2024-01-27T15:46:58;9.30;47.90
41220;DHT22;26951;47.338;9.196;2024-01-27T15:49:43;9.10;47.70
41220;DHT22;26951;47.338;9.196;2024-01-27T15:52:29;8.90;47.50
41220;DHT22;26951;47.338;9.196;2024-01-27T15:55:13;8.70;47.00
41220;DHT22;26951;47.338;9.196;2024-01-27T15:57:57;8.50;47.00
41220;DHT22;26951;47.338;9.196;2024-01-27T16:00:41;8.30;47.90
41220;DHT22;26951;47.338;9.196;2024-01-27T16:03:25;8.00;47.50
41220;DHT22;26951;47.338;9.196;2024-01-27T16:06:09;7.80;48.60
41220;DHT22;26951;47.338;9.196;2024-01-27T16:08:53;7.60;49.00
41220;DHT22;26951;47.338;9.196;2024-01-27T16:11:37;7.40;48.00
41220;DHT22;26951;47.338;9.196;2024-01-27T16:14:22;7.20;48.20
41220;DHT22;26951;47.338;9.196;2024-01-27T16:17:06;7.00;49.10
41220;DHT22;26951;47.338;9.196;2024-01-27T16:19:50;6.90;50.00
41220;DHT22;26951;47.338;9.196;2024-01-27T16:22:36;6.70;50.00
41220;DHT22;26951;47.338;9.196;2024-01-27T16:25:20;6.50;49.40
41220;DHT22;26951;47.338;9.196;2024-01-27T16:28:04;6.40;49.60
41220;DHT22;26951;47.338;9.196;2024-01-27T16:30:49;6.20;50.10
41220;DHT22;26951;47.338;9.196;2024-01-27T16:33:33;6.00;49.90
41220;DHT22;26951;47.338;9.196;2024-01-27T16:36:18;5.90;50.50
41220;DHT22;26951;47.338;9.196;2024-01-27T16:39:02;5.80;50.20
41220;DHT22;26951;47.338;9.196;2024-01-27T16:41:47;5.60;50.10
41220;DHT22;26951;47.338;9.196;2024-01-27T16:44:31;5.40;51.00
41220;DHT22;26951;47.338;9.196;2024-01-27T16:47:16;5.30;52.60
41220;DHT22;26951;47.338;9.196;2024-01-27T16:50:02;5.20;53.80
41220;DHT22;26951;47.338;9.196;2024-01-27T16:52:47;5.10;55.20
41220;DHT22;26951;47.338;9.196;2024-01-27T16:55:31;4.90;55.80
41220;DHT22;26951;47.338;9.196;2024-01-27T16:58:18;4.80;56.90
41220;DHT22;26951;47.338;9.196;2024-01-27T17:01:03;4.70;57.60
41220;DHT22;26951;47.338;9.196;2024-01-27T17:03:47;4.60;57.70
41220;DHT22;26951;47.338;9.196;2024-01-27T17:06:31;4.50;60.40
41220;DHT22;26951;47.338;9.196;2024-01-27T17:09:15;4.30;61.00
41220;DHT22;26951;47.338;9.196;2024-01-27T17:12:00;4.30;61.00
41220;DHT22;26951;47.338;9.196;2024-01-27T17:14:44;4.20;61.40
41220;DHT22;26951;47.338;9.196;2024-01-27T17:17:28;4.20;60.50
41220;DHT22;26951;47.338;9.196;2024-01-27T17:20:13;4.20;60.30
41220;DHT22;26951;47.338;9.196;2024-01-27T17:22:57;4.20;58.70
41220;DHT22;26951;47.338;9.196;2024-01-27T17:25:41;4.20;57.50
41220;DHT22;26951;47.338;9.196;2024-01-27T17:28:25;4.00;58.30
41220;DHT22;26951;47.338;9.196;2024-01-27T17:31:10;4.00;58.70
41220;DHT22;26951;47.338;9.196;2024-01-27T17:33:54;3.90;59.20